Terminal Aerodrome Forecast
Issued by NWS Missoula, MT

Home | Current Version | Previous Version | Text Only | Print | Product List | Glossary On
Versions: 1 2 3 4 5 6 7 8 9 10 11 12 13 14 15 16 17 18 19 20 21
406
FTUS45 KMSO 271736
TAFMSO
TAF
KMSO 271736Z 2718/2818 13007KT P6SM VCSH BKN050 OVC070
     FM271900 20005KT P6SM -SHSN BKN020 OVC040
     FM281000 12005KT 2SM -SN BR OVC015=

USA.gov is the U.S. government's official web portal to all federal, state and local government web resources and services.